Redfield, Iowa
Current Conditions -  °F | °C
As of 4:35 PM on Monday 22 Dec 2014 (Local Time) from KPRO Reporting Station
Drizzle Drizzle  
Wind Chill: 33°   Ceiling: 500
Heat Index: 40°   Visibility: 4mi
Dew Point: 39°   Wind: 9mph
Humidity: 99%   Direction: 110°ESE
Pressure: 29.45"   Gusts: NA
Location:  41.59°N, 94.2°W
Report Text: KPRO 222235Z AUTO 11008KT 4SM -DZ OVC005 04/04 A2945 RMK AO2 T00420041
Loading
Personal Weather Stations






























Interactive Weather Map New forecast layout! Learn more

10-Day Weather Forecast

Advertisements
Track Severe Weather on mobile